sensor_id;sensor_type;location;lat;lon;timestamp;P1;durP1;ratioP1;P2;durP2;ratioP2
57337;SDS011;43173;50.980;18.204;2023-06-01T00:02:05;12.50;;;5.20;;
57337;SDS011;43173;50.980;18.204;2023-06-01T00:04:31;10.20;;;5.20;;
57337;SDS011;43173;50.980;18.204;2023-06-01T00:06:56;11.10;;;6.10;;
57337;SDS011;43173;50.980;18.204;2023-06-01T00:09:25;10.90;;;5.30;;
57337;SDS011;43173;50.980;18.204;2023-06-01T00:11:51;9.50;;;5.70;;
57337;SDS011;43173;50.980;18.204;2023-06-01T00:14:16;8.40;;;5.20;;
57337;SDS011;43173;50.980;18.204;2023-06-01T00:16:44;9.40;;;5.00;;
57337;SDS011;43173;50.980;18.204;2023-06-01T00:19:10;8.70;;;5.30;;
57337;SDS011;43173;50.980;18.204;2023-06-01T00:21:36;9.50;;;5.20;;
57337;SDS011;43173;50.980;18.204;2023-06-01T00:24:02;9.40;;;5.50;;
57337;SDS011;43173;50.980;18.204;2023-06-01T00:26:28;8.50;;;5.40;;
57337;SDS011;43173;50.980;18.204;2023-06-01T00:28:57;10.20;;;5.50;;
57337;SDS011;43173;50.980;18.204;2023-06-01T00:31:24;8.10;;;5.50;;
57337;SDS011;43173;50.980;18.204;2023-06-01T00:33:50;11.30;;;5.60;;
57337;SDS011;43173;50.980;18.204;2023-06-01T00:36:16;13.20;;;5.90;;
57337;SDS011;43173;50.980;18.204;2023-06-01T00:38:42;10.00;;;6.00;;
57337;SDS011;43173;50.980;18.204;2023-06-01T00:41:07;11.20;;;6.30;;
57337;SDS011;43173;50.980;18.204;2023-06-01T00:43:33;10.70;;;5.70;;
57337;SDS011;43173;50.980;18.204;2023-06-01T00:45:59;10.40;;;5.90;;
57337;SDS011;43173;50.980;18.204;2023-06-01T00:48:24;12.10;;;6.10;;
57337;SDS011;43173;50.980;18.204;2023-06-01T00:50:50;12.00;;;6.00;;
57337;SDS011;43173;50.980;18.204;2023-06-01T00:53:17;10.20;;;5.60;;
57337;SDS011;43173;50.980;18.204;2023-06-01T00:55:45;8.80;;;5.50;;
57337;SDS011;43173;50.980;18.204;2023-06-01T00:58:12;9.80;;;5.50;;
57337;SDS011;43173;50.980;18.204;2023-06-01T01:00:38;8.50;;;5.30;;
57337;SDS011;43173;50.980;18.204;2023-06-01T01:03:05;11.00;;;5.90;;
57337;SDS011;43173;50.980;18.204;2023-06-01T01:05:35;10.20;;;5.90;;
57337;SDS011;43173;50.980;18.204;2023-06-01T01:13:53;12.20;;;6.00;;
57337;SDS011;43173;50.980;18.204;2023-06-01T01:24:43;7.30;;;5.60;;
57337;SDS011;43173;50.980;18.204;2023-06-01T01:29:51;9.00;;;6.00;;
57337;SDS011;43173;50.980;18.204;2023-06-01T01:32:17;10.30;;;6.10;;
57337;SDS011;43173;50.980;18.204;2023-06-01T01:34:45;11.80;;;6.70;;
57337;SDS011;43173;50.980;18.204;2023-06-01T01:37:12;12.20;;;6.20;;
57337;SDS011;43173;50.980;18.204;2023-06-01T01:39:38;7.90;;;6.20;;
57337;SDS011;43173;50.980;18.204;2023-06-01T01:42:04;12.00;;;6.20;;
57337;SDS011;43173;50.980;18.204;2023-06-01T01:44:30;12.00;;;6.40;;
57337;SDS011;43173;50.980;18.204;2023-06-01T01:47:04;9.30;;;6.70;;
57337;SDS011;43173;50.980;18.204;2023-06-01T01:49:43;10.00;;;6.50;;
57337;SDS011;43173;50.980;18.204;2023-06-01T01:52:43;10.50;;;6.90;;
57337;SDS011;43173;50.980;18.204;2023-06-01T01:55:05;8.90;;;6.90;;
57337;SDS011;43173;50.980;18.204;2023-06-01T01:57:34;11.90;;;6.80;;
57337;SDS011;43173;50.980;18.204;2023-06-01T02:00:01;12.20;;;7.80;;
57337;SDS011;43173;50.980;18.204;2023-06-01T02:02:28;9.80;;;6.90;;
57337;SDS011;43173;50.980;18.204;2023-06-01T02:04:54;12.00;;;6.80;;
57337;SDS011;43173;50.980;18.204;2023-06-01T02:07:20;14.00;;;7.80;;
57337;SDS011;43173;50.980;18.204;2023-06-01T02:09:46;14.30;;;7.90;;
57337;SDS011;43173;50.980;18.204;2023-06-01T02:12:12;13.30;;;7.70;;
57337;SDS011;43173;50.980;18.204;2023-06-01T02:14:37;11.20;;;7.70;;
57337;SDS011;43173;50.980;18.204;2023-06-01T02:17:03;11.20;;;7.80;;
57337;SDS011;43173;50.980;18.204;2023-06-01T02:19:31;13.70;;;8.40;;
57337;SDS011;43173;50.980;18.204;2023-06-01T02:21:56;12.80;;;8.20;;
57337;SDS011;43173;50.980;18.204;2023-06-01T02:24:22;11.80;;;7.90;;
57337;SDS011;43173;50.980;18.204;2023-06-01T02:26:48;14.90;;;7.80;;
57337;SDS011;43173;50.980;18.204;2023-06-01T02:29:17;11.40;;;8.00;;
57337;SDS011;43173;50.980;18.204;2023-06-01T02:31:47;11.20;;;7.80;;
57337;SDS011;43173;50.980;18.204;2023-06-01T02:34:17;12.70;;;8.20;;
57337;SDS011;43173;50.980;18.204;2023-06-01T02:36:43;13.20;;;7.90;;
57337;SDS011;43173;50.980;18.204;2023-06-01T02:39:08;11.60;;;8.30;;
57337;SDS011;43173;50.980;18.204;2023-06-01T02:41:34;13.20;;;8.30;;
57337;SDS011;43173;50.980;18.204;2023-06-01T02:44:02;9.50;;;7.80;;
57337;SDS011;43173;50.980;18.204;2023-06-01T02:46:28;12.70;;;7.80;;
57337;SDS011;43173;50.980;18.204;2023-06-01T02:48:53;12.60;;;8.30;;
57337;SDS011;43173;50.980;18.204;2023-06-01T02:51:23;13.30;;;8.80;;
57337;SDS011;43173;50.980;18.204;2023-06-01T02:53:49;11.60;;;8.20;;
57337;SDS011;43173;50.980;18.204;2023-06-01T02:56:16;13.10;;;8.50;;
57337;SDS011;43173;50.980;18.204;2023-06-01T02:58:42;12.80;;;8.30;;
57337;SDS011;43173;50.980;18.204;2023-06-01T03:01:10;16.70;;;7.80;;
57337;SDS011;43173;50.980;18.204;2023-06-01T03:03:38;13.60;;;7.80;;
57337;SDS011;43173;50.980;18.204;2023-06-01T03:06:04;11.60;;;7.80;;
57337;SDS011;43173;50.980;18.204;2023-06-01T03:08:31;12.60;;;8.10;;
57337;SDS011;43173;50.980;18.204;2023-06-01T03:10:57;13.40;;;8.30;;
57337;SDS011;43173;50.980;18.204;2023-06-01T03:13:23;14.60;;;8.30;;
57337;SDS011;43173;50.980;18.204;2023-06-01T03:15:49;14.10;;;8.20;;
57337;SDS011;43173;50.980;18.204;2023-06-01T03:18:15;12.10;;;7.50;;
57337;SDS011;43173;50.980;18.204;2023-06-01T03:20:41;13.30;;;7.80;;
57337;SDS011;43173;50.980;18.204;2023-06-01T03:23:07;13.60;;;8.10;;
57337;SDS011;43173;50.980;18.204;2023-06-01T03:25:33;10.40;;;7.50;;
57337;SDS011;43173;50.980;18.204;2023-06-01T03:27:58;9.50;;;7.70;;
57337;SDS011;43173;50.980;18.204;2023-06-01T03:30:24;15.40;;;7.80;;
57337;SDS011;43173;50.980;18.204;2023-06-01T03:32:50;10.80;;;7.20;;
57337;SDS011;43173;50.980;18.204;2023-06-01T03:35:16;12.90;;;7.60;;
57337;SDS011;43173;50.980;18.204;2023-06-01T03:37:44;13.80;;;8.20;;
57337;SDS011;43173;50.980;18.204;2023-06-01T03:40:10;12.70;;;8.40;;
57337;SDS011;43173;50.980;18.204;2023-06-01T03:42:37;15.30;;;8.10;;
57337;SDS011;43173;50.980;18.204;2023-06-01T03:45:04;11.90;;;7.70;;
57337;SDS011;43173;50.980;18.204;2023-06-01T03:47:30;15.30;;;8.10;;
57337;SDS011;43173;50.980;18.204;2023-06-01T03:49:56;13.00;;;7.70;;
57337;SDS011;43173;50.980;18.204;2023-06-01T03:52:27;16.80;;;8.00;;
57337;SDS011;43173;50.980;18.204;2023-06-01T03:54:57;13.40;;;7.70;;
57337;SDS011;43173;50.980;18.204;2023-06-01T03:57:23;16.60;;;7.80;;
57337;SDS011;43173;50.980;18.204;2023-06-01T03:59:50;12.00;;;7.60;;
57337;SDS011;43173;50.980;18.204;2023-06-01T04:02:16;15.50;;;7.90;;
57337;SDS011;43173;50.980;18.204;2023-06-01T04:04:43;12.70;;;7.80;;
57337;SDS011;43173;50.980;18.204;2023-06-01T04:07:12;10.70;;;7.50;;
57337;SDS011;43173;50.980;18.204;2023-06-01T04:09:44;12.00;;;7.90;;
57337;SDS011;43173;50.980;18.204;2023-06-01T04:12:12;10.40;;;7.80;;
57337;SDS011;43173;50.980;18.204;2023-06-01T04:14:38;14.90;;;7.80;;
57337;SDS011;43173;50.980;18.204;2023-06-01T04:17:03;13.10;;;7.70;;
57337;SDS011;43173;50.980;18.204;2023-06-01T04:19:30;11.00;;;7.70;;
57337;SDS011;43173;50.980;18.204;2023-06-01T04:21:58;11.60;;;8.00;;
57337;SDS011;43173;50.980;18.204;2023-06-01T04:24:24;15.00;;;7.90;;
57337;SDS011;43173;50.980;18.204;2023-06-01T04:26:50;12.40;;;8.20;;
57337;SDS011;43173;50.980;18.204;2023-06-01T04:29:16;13.00;;;7.30;;
57337;SDS011;43173;50.980;18.204;2023-06-01T04:31:45;12.30;;;7.50;;
57337;SDS011;43173;50.980;18.204;2023-06-01T04:34:11;14.20;;;7.50;;
57337;SDS011;43173;50.980;18.204;2023-06-01T04:36:37;13.60;;;8.10;;
57337;SDS011;43173;50.980;18.204;2023-06-01T04:39:07;13.90;;;8.00;;
57337;SDS011;43173;50.980;18.204;2023-06-01T04:41:34;13.60;;;7.80;;
57337;SDS011;43173;50.980;18.204;2023-06-01T04:44:01;15.20;;;8.40;;
57337;SDS011;43173;50.980;18.204;2023-06-01T04:46:31;12.00;;;7.80;;
57337;SDS011;43173;50.980;18.204;2023-06-01T04:48:57;16.20;;;8.60;;
57337;SDS011;43173;50.980;18.204;2023-06-01T04:51:25;11.80;;;7.80;;
57337;SDS011;43173;50.980;18.204;2023-06-01T04:53:52;12.90;;;8.10;;
57337;SDS011;43173;50.980;18.204;2023-06-01T04:56:19;13.60;;;8.00;;
57337;SDS011;43173;50.980;18.204;2023-06-01T04:58:50;12.30;;;7.90;;
57337;SDS011;43173;50.980;18.204;2023-06-01T05:01:16;15.70;;;8.90;;
57337;SDS011;43173;50.980;18.204;2023-06-01T05:03:43;12.50;;;7.50;;
57337;SDS011;43173;50.980;18.204;2023-06-01T05:06:10;12.00;;;7.20;;
57337;SDS011;43173;50.980;18.204;2023-06-01T05:08:37;12.80;;;7.40;;
57337;SDS011;43173;50.980;18.204;2023-06-01T05:11:06;13.80;;;7.90;;
57337;SDS011;43173;50.980;18.204;2023-06-01T05:13:36;11.50;;;7.50;;
57337;SDS011;43173;50.980;18.204;2023-06-01T05:16:05;12.70;;;7.50;;
57337;SDS011;43173;50.980;18.204;2023-06-01T05:18:32;10.20;;;7.00;;
57337;SDS011;43173;50.980;18.204;2023-06-01T05:20:58;14.60;;;7.00;;
57337;SDS011;43173;50.980;18.204;2023-06-01T05:23:25;11.90;;;7.60;;
57337;SDS011;43173;50.980;18.204;2023-06-01T05:25:53;11.10;;;6.70;;
57337;SDS011;43173;50.980;18.204;2023-06-01T05:28:24;12.70;;;7.00;;
57337;SDS011;43173;50.980;18.204;2023-06-01T05:30:50;12.10;;;7.40;;
57337;SDS011;43173;50.980;18.204;2023-06-01T05:33:16;9.40;;;6.70;;
57337;SDS011;43173;50.980;18.204;2023-06-01T05:35:41;18.20;;;7.10;;
57337;SDS011;43173;50.980;18.204;2023-06-01T05:38:07;11.40;;;7.00;;
57337;SDS011;43173;50.980;18.204;2023-06-01T05:40:33;11.30;;;6.90;;
57337;SDS011;43173;50.980;18.204;2023-06-01T05:42:58;12.40;;;6.60;;
57337;SDS011;43173;50.980;18.204;2023-06-01T05:45:24;8.90;;;6.00;;
57337;SDS011;43173;50.980;18.204;2023-06-01T05:47:50;12.10;;;6.40;;
57337;SDS011;43173;50.980;18.204;2023-06-01T05:50:15;10.10;;;6.50;;
57337;SDS011;43173;50.980;18.204;2023-06-01T05:52:41;9.90;;;6.00;;
57337;SDS011;43173;50.980;18.204;2023-06-01T05:55:08;10.70;;;4.90;;
57337;SDS011;43173;50.980;18.204;2023-06-01T05:57:33;11.70;;;5.60;;
57337;SDS011;43173;50.980;18.204;2023-06-01T05:59:59;12.00;;;5.50;;
57337;SDS011;43173;50.980;18.204;2023-06-01T06:02:25;8.80;;;4.90;;
57337;SDS011;43173;50.980;18.204;2023-06-01T06:04:50;7.90;;;5.20;;
57337;SDS011;43173;50.980;18.204;2023-06-01T06:07:16;10.40;;;5.20;;
57337;SDS011;43173;50.980;18.204;2023-06-01T06:09:42;8.60;;;5.40;;
57337;SDS011;43173;50.980;18.204;2023-06-01T06:12:07;8.50;;;4.60;;
57337;SDS011;43173;50.980;18.204;2023-06-01T06:14:33;5.80;;;4.30;;
57337;SDS011;43173;50.980;18.204;2023-06-01T06:16:59;7.30;;;4.70;;
57337;SDS011;43173;50.980;18.204;2023-06-01T06:19:25;9.00;;;4.70;;
57337;SDS011;43173;50.980;18.204;2023-06-01T06:21:51;7.00;;;4.40;;
57337;SDS011;43173;50.980;18.204;2023-06-01T06:24:16;10.60;;;4.60;;
57337;SDS011;43173;50.980;18.204;2023-06-01T06:26:43;11.30;;;4.60;;
57337;SDS011;43173;50.980;18.204;2023-06-01T06:29:09;6.60;;;4.30;;
57337;SDS011;43173;50.980;18.204;2023-06-01T06:31:35;6.10;;;4.20;;
57337;SDS011;43173;50.980;18.204;2023-06-01T06:34:01;9.00;;;4.20;;
57337;SDS011;43173;50.980;18.204;2023-06-01T06:36:27;7.50;;;4.00;;
57337;SDS011;43173;50.980;18.204;2023-06-01T06:38:52;10.30;;;4.30;;
57337;SDS011;43173;50.980;18.204;2023-06-01T06:41:18;8.20;;;4.70;;
57337;SDS011;43173;50.980;18.204;2023-06-01T06:43:44;10.70;;;5.10;;
57337;SDS011;43173;50.980;18.204;2023-06-01T06:46:09;8.00;;;4.40;;
57337;SDS011;43173;50.980;18.204;2023-06-01T06:48:35;7.00;;;3.80;;
57337;SDS011;43173;50.980;18.204;2023-06-01T06:51:01;7.50;;;4.20;;
57337;SDS011;43173;50.980;18.204;2023-06-01T06:53:27;12.80;;;4.20;;
57337;SDS011;43173;50.980;18.204;2023-06-01T06:55:53;6.60;;;4.50;;
57337;SDS011;43173;50.980;18.204;2023-06-01T06:58:18;6.40;;;4.10;;
57337;SDS011;43173;50.980;18.204;2023-06-01T07:00:44;10.90;;;4.50;;
57337;SDS011;43173;50.980;18.204;2023-06-01T07:03:10;6.90;;;4.30;;
57337;SDS011;43173;50.980;18.204;2023-06-01T07:05:35;6.80;;;4.80;;
57337;SDS011;43173;50.980;18.204;2023-06-01T07:08:01;6.40;;;4.10;;
57337;SDS011;43173;50.980;18.204;2023-06-01T07:10:27;7.90;;;3.90;;
57337;SDS011;43173;50.980;18.204;2023-06-01T07:12:52;6.00;;;3.90;;
57337;SDS011;43173;50.980;18.204;2023-06-01T07:15:18;6.90;;;3.90;;
57337;SDS011;43173;50.980;18.204;2023-06-01T07:17:44;8.10;;;3.70;;
57337;SDS011;43173;50.980;18.204;2023-06-01T07:20:09;7.20;;;4.30;;
57337;SDS011;43173;50.980;18.204;2023-06-01T07:22:39;7.60;;;3.60;;
57337;SDS011;43173;50.980;18.204;2023-06-01T07:25:05;6.70;;;3.50;;
57337;SDS011;43173;50.980;18.204;2023-06-01T07:27:32;5.90;;;3.50;;
57337;SDS011;43173;50.980;18.204;2023-06-01T07:30:01;5.80;;;3.60;;
57337;SDS011;43173;50.980;18.204;2023-06-01T07:32:28;10.30;;;3.80;;
57337;SDS011;43173;50.980;18.204;2023-06-01T07:34:54;7.60;;;3.50;;
57337;SDS011;43173;50.980;18.204;2023-06-01T07:37:23;6.60;;;3.50;;
57337;SDS011;43173;50.980;18.204;2023-06-01T07:39:52;6.50;;;3.70;;
57337;SDS011;43173;50.980;18.204;2023-06-01T07:42:21;5.70;;;3.30;;
57337;SDS011;43173;50.980;18.204;2023-06-01T07:44:47;5.00;;;3.50;;
57337;SDS011;43173;50.980;18.204;2023-06-01T07:47:13;8.40;;;3.70;;
57337;SDS011;43173;50.980;18.204;2023-06-01T07:49:38;9.90;;;4.00;;
57337;SDS011;43173;50.980;18.204;2023-06-01T07:52:04;6.40;;;3.90;;
57337;SDS011;43173;50.980;18.204;2023-06-01T07:54:31;6.40;;;3.30;;
57337;SDS011;43173;50.980;18.204;2023-06-01T07:56:58;6.60;;;3.40;;
57337;SDS011;43173;50.980;18.204;2023-06-01T07:59:23;7.60;;;3.50;;
57337;SDS011;43173;50.980;18.204;2023-06-01T08:01:49;6.40;;;3.70;;
57337;SDS011;43173;50.980;18.204;2023-06-01T08:04:16;5.20;;;3.50;;
57337;SDS011;43173;50.980;18.204;2023-06-01T08:06:46;6.40;;;3.50;;
57337;SDS011;43173;50.980;18.204;2023-06-01T08:09:12;7.60;;;3.00;;
57337;SDS011;43173;50.980;18.204;2023-06-01T08:11:38;7.40;;;3.20;;
57337;SDS011;43173;50.980;18.204;2023-06-01T08:14:04;4.70;;;3.10;;
57337;SDS011;43173;50.980;18.204;2023-06-01T08:16:32;5.50;;;3.30;;
57337;SDS011;43173;50.980;18.204;2023-06-01T08:18:59;6.10;;;3.00;;
57337;SDS011;43173;50.980;18.204;2023-06-01T08:21:25;5.20;;;2.80;;
57337;SDS011;43173;50.980;18.204;2023-06-01T08:23:51;5.20;;;2.50;;
57337;SDS011;43173;50.980;18.204;2023-06-01T08:26:20;5.50;;;2.60;;
57337;SDS011;43173;50.980;18.204;2023-06-01T08:28:46;3.30;;;2.40;;
57337;SDS011;43173;50.980;18.204;2023-06-01T08:31:22;5.30;;;2.40;;
57337;SDS011;43173;50.980;18.204;2023-06-01T08:33:49;5.10;;;2.30;;
57337;SDS011;43173;50.980;18.204;2023-06-01T08:36:17;3.30;;;2.40;;
57337;SDS011;43173;50.980;18.204;2023-06-01T08:38:44;6.70;;;2.60;;
57337;SDS011;43173;50.980;18.204;2023-06-01T08:44:08;8.40;;;2.60;;
57337;SDS011;43173;50.980;18.204;2023-06-01T08:46:33;5.20;;;2.50;;
57337;SDS011;43173;50.980;18.204;2023-06-01T08:49:02;5.20;;;2.50;;
57337;SDS011;43173;50.980;18.204;2023-06-01T08:51:28;5.80;;;2.30;;
57337;SDS011;43173;50.980;18.204;2023-06-01T08:53:58;10.30;;;2.60;;
57337;SDS011;43173;50.980;18.204;2023-06-01T08:56:27;5.80;;;2.40;;
57337;SDS011;43173;50.980;18.204;2023-06-01T08:58:53;4.90;;;2.20;;
57337;SDS011;43173;50.980;18.204;2023-06-01T09:01:19;5.00;;;2.20;;
57337;SDS011;43173;50.980;18.204;2023-06-01T09:03:51;4.90;;;2.10;;
57337;SDS011;43173;50.980;18.204;2023-06-01T09:08:44;4.60;;;2.00;;
57337;SDS011;43173;50.980;18.204;2023-06-01T09:11:10;8.10;;;1.90;;
57337;SDS011;43173;50.980;18.204;2023-06-01T09:13:37;3.90;;;2.40;;
57337;SDS011;43173;50.980;18.204;2023-06-01T09:16:04;2.20;;;1.60;;
57337;SDS011;43173;50.980;18.204;2023-06-01T09:18:30;3.90;;;1.90;;
57337;SDS011;43173;50.980;18.204;2023-06-01T09:23:38;7.70;;;2.20;;
57337;SDS011;43173;50.980;18.204;2023-06-01T09:26:04;3.80;;;1.90;;
57337;SDS011;43173;50.980;18.204;2023-06-01T09:34:17;4.70;;;1.80;;
57337;SDS011;43173;50.980;18.204;2023-06-01T09:36:48;6.10;;;1.90;;
57337;SDS011;43173;50.980;18.204;2023-06-01T09:39:16;5.00;;;2.10;;
57337;SDS011;43173;50.980;18.204;2023-06-01T09:42:01;5.90;;;2.00;;
57337;SDS011;43173;50.980;18.204;2023-06-01T09:44:28;5.60;;;2.20;;
57337;SDS011;43173;50.980;18.204;2023-06-01T09:46:59;9.30;;;2.10;;
57337;SDS011;43173;50.980;18.204;2023-06-01T09:49:27;5.80;;;2.10;;
57337;SDS011;43173;50.980;18.204;2023-06-01T09:54:38;4.50;;;1.90;;
57337;SDS011;43173;50.980;18.204;2023-06-01T09:59:56;4.10;;;2.10;;
57337;SDS011;43173;50.980;18.204;2023-06-01T10:02:23;2.60;;;1.60;;
57337;SDS011;43173;50.980;18.204;2023-06-01T10:04:50;4.80;;;2.00;;
57337;SDS011;43173;50.980;18.204;2023-06-01T10:07:18;3.70;;;2.00;;
57337;SDS011;43173;50.980;18.204;2023-06-01T10:09:51;4.20;;;2.00;;
57337;SDS011;43173;50.980;18.204;2023-06-01T10:12:20;4.90;;;2.30;;
57337;SDS011;43173;50.980;18.204;2023-06-01T10:14:47;3.40;;;2.30;;
57337;SDS011;43173;50.980;18.204;2023-06-01T10:17:13;5.90;;;2.20;;
57337;SDS011;43173;50.980;18.204;2023-06-01T10:19:42;5.70;;;2.30;;
57337;SDS011;43173;50.980;18.204;2023-06-01T10:22:08;4.10;;;2.20;;
57337;SDS011;43173;50.980;18.204;2023-06-01T10:24:36;5.10;;;2.20;;
57337;SDS011;43173;50.980;18.204;2023-06-01T10:27:16;3.90;;;2.30;;
57337;SDS011;43173;50.980;18.204;2023-06-01T10:29:48;5.50;;;2.40;;
57337;SDS011;43173;50.980;18.204;2023-06-01T10:35:03;4.40;;;2.10;;
57337;SDS011;43173;50.980;18.204;2023-06-01T10:37:29;4.80;;;2.00;;
57337;SDS011;43173;50.980;18.204;2023-06-01T10:42:45;3.30;;;2.00;;
57337;SDS011;43173;50.980;18.204;2023-06-01T10:45:57;3.50;;;1.90;;
57337;SDS011;43173;50.980;18.204;2023-06-01T10:48:04;5.20;;;2.20;;
57337;SDS011;43173;50.980;18.204;2023-06-01T10:50:31;5.20;;;1.90;;
57337;SDS011;43173;50.980;18.204;2023-06-01T10:53:26;3.80;;;2.20;;
57337;SDS011;43173;50.980;18.204;2023-06-01T10:56:35;5.70;;;2.30;;
57337;SDS011;43173;50.980;18.204;2023-06-01T11:01:34;7.80;;;2.40;;
57337;SDS011;43173;50.980;18.204;2023-06-01T11:04:02;6.10;;;2.00;;
57337;SDS011;43173;50.980;18.204;2023-06-01T11:06:31;4.30;;;1.90;;
57337;SDS011;43173;50.980;18.204;2023-06-01T11:21:41;7.10;;;2.10;;
57337;SDS011;43173;50.980;18.204;2023-06-01T11:24:12;3.90;;;2.20;;
57337;SDS011;43173;50.980;18.204;2023-06-01T11:26:39;5.70;;;2.20;;
57337;SDS011;43173;50.980;18.204;2023-06-01T11:29:15;6.60;;;2.00;;
57337;SDS011;43173;50.980;18.204;2023-06-01T11:31:47;5.50;;;2.10;;
57337;SDS011;43173;50.980;18.204;2023-06-01T11:34:26;3.90;;;2.20;;
57337;SDS011;43173;50.980;18.204;2023-06-01T11:37:12;6.40;;;2.10;;
57337;SDS011;43173;50.980;18.204;2023-06-01T11:39:39;4.60;;;2.00;;
57337;SDS011;43173;50.980;18.204;2023-06-01T11:47:30;4.70;;;1.80;;
57337;SDS011;43173;50.980;18.204;2023-06-01T11:49:56;3.80;;;1.70;;
57337;SDS011;43173;50.980;18.204;2023-06-01T11:52:22;4.50;;;2.10;;
57337;SDS011;43173;50.980;18.204;2023-06-01T11:54:47;3.10;;;1.70;;
57337;SDS011;43173;50.980;18.204;2023-06-01T11:57:14;4.20;;;2.00;;
57337;SDS011;43173;50.980;18.204;2023-06-01T11:59:40;3.80;;;2.00;;
57337;SDS011;43173;50.980;18.204;2023-06-01T12:04:57;3.30;;;1.80;;
57337;SDS011;43173;50.980;18.204;2023-06-01T12:07:25;3.40;;;1.70;;
57337;SDS011;43173;50.980;18.204;2023-06-01T12:09:51;2.80;;;1.70;;
57337;SDS011;43173;50.980;18.204;2023-06-01T12:12:20;3.10;;;1.80;;
57337;SDS011;43173;50.980;18.204;2023-06-01T12:14:50;4.30;;;1.70;;
57337;SDS011;43173;50.980;18.204;2023-06-01T12:17:16;3.20;;;1.90;;
57337;SDS011;43173;50.980;18.204;2023-06-01T12:19:48;5.00;;;1.90;;
57337;SDS011;43173;50.980;18.204;2023-06-01T12:22:15;4.20;;;2.10;;
57337;SDS011;43173;50.980;18.204;2023-06-01T12:24:42;4.50;;;1.60;;
57337;SDS011;43173;50.980;18.204;2023-06-01T12:27:13;3.10;;;1.50;;
57337;SDS011;43173;50.980;18.204;2023-06-01T12:29:47;3.30;;;1.70;;
57337;SDS011;43173;50.980;18.204;2023-06-01T12:32:15;3.60;;;1.80;;
57337;SDS011;43173;50.980;18.204;2023-06-01T12:34:43;2.90;;;1.70;;
57337;SDS011;43173;50.980;18.204;2023-06-01T12:37:16;4.20;;;2.00;;
57337;SDS011;43173;50.980;18.204;2023-06-01T12:42:10;5.20;;;1.90;;
57337;SDS011;43173;50.980;18.204;2023-06-01T12:44:37;6.30;;;2.00;;
57337;SDS011;43173;50.980;18.204;2023-06-01T12:47:05;3.50;;;1.60;;
57337;SDS011;43173;50.980;18.204;2023-06-01T12:49:31;8.10;;;1.90;;
57337;SDS011;43173;50.980;18.204;2023-06-01T12:51:57;2.40;;;1.50;;
57337;SDS011;43173;50.980;18.204;2023-06-01T12:54:22;4.80;;;1.70;;
57337;SDS011;43173;50.980;18.204;2023-06-01T12:56:48;4.40;;;1.80;;
57337;SDS011;43173;50.980;18.204;2023-06-01T12:59:14;3.80;;;1.40;;
57337;SDS011;43173;50.980;18.204;2023-06-01T13:01:40;4.00;;;1.70;;
57337;SDS011;43173;50.980;18.204;2023-06-01T13:04:06;3.70;;;1.70;;
57337;SDS011;43173;50.980;18.204;2023-06-01T13:06:33;4.80;;;1.80;;
57337;SDS011;43173;50.980;18.204;2023-06-01T13:09:03;5.00;;;1.30;;
57337;SDS011;43173;50.980;18.204;2023-06-01T13:11:29;3.60;;;1.50;;
57337;SDS011;43173;50.980;18.204;2023-06-01T13:13:55;2.50;;;1.50;;
57337;SDS011;43173;50.980;18.204;2023-06-01T13:16:22;2.20;;;1.20;;
57337;SDS011;43173;50.980;18.204;2023-06-01T13:18:48;2.50;;;1.40;;
57337;SDS011;43173;50.980;18.204;2023-06-01T13:21:16;5.10;;;1.20;;
57337;SDS011;43173;50.980;18.204;2023-06-01T13:23:42;5.50;;;1.40;;
57337;SDS011;43173;50.980;18.204;2023-06-01T13:26:09;3.20;;;1.30;;
57337;SDS011;43173;50.980;18.204;2023-06-01T13:28:35;2.60;;;1.30;;
57337;SDS011;43173;50.980;18.204;2023-06-01T13:31:01;3.30;;;1.40;;
57337;SDS011;43173;50.980;18.204;2023-06-01T13:33:26;4.60;;;1.30;;
57337;SDS011;43173;50.980;18.204;2023-06-01T13:35:52;3.00;;;1.40;;
57337;SDS011;43173;50.980;18.204;2023-06-01T13:38:18;2.10;;;1.30;;
57337;SDS011;43173;50.980;18.204;2023-06-01T13:40:43;2.90;;;1.30;;
57337;SDS011;43173;50.980;18.204;2023-06-01T13:43:09;6.80;;;1.70;;
57337;SDS011;43173;50.980;18.204;2023-06-01T13:45:34;3.90;;;1.50;;
57337;SDS011;43173;50.980;18.204;2023-06-01T13:48:00;3.70;;;1.30;;
57337;SDS011;43173;50.980;18.204;2023-06-01T13:50:27;4.20;;;1.40;;
57337;SDS011;43173;50.980;18.204;2023-06-01T13:52:52;4.50;;;1.60;;
57337;SDS011;43173;50.980;18.204;2023-06-01T13:55:19;2.80;;;1.40;;
57337;SDS011;43173;50.980;18.204;2023-06-01T13:57:45;4.70;;;1.40;;
57337;SDS011;43173;50.980;18.204;2023-06-01T14:00:11;1.80;;;1.40;;
57337;SDS011;43173;50.980;18.204;2023-06-01T14:02:37;2.90;;;1.50;;
57337;SDS011;43173;50.980;18.204;2023-06-01T14:05:03;2.40;;;1.40;;
57337;SDS011;43173;50.980;18.204;2023-06-01T14:07:29;1.40;;;1.10;;
57337;SDS011;43173;50.980;18.204;2023-06-01T14:09:55;2.80;;;1.40;;
57337;SDS011;43173;50.980;18.204;2023-06-01T14:12:21;5.80;;;1.50;;
57337;SDS011;43173;50.980;18.204;2023-06-01T14:14:46;2.90;;;1.30;;
57337;SDS011;43173;50.980;18.204;2023-06-01T14:17:12;3.00;;;1.40;;
57337;SDS011;43173;50.980;18.204;2023-06-01T14:19:38;2.90;;;1.20;;
57337;SDS011;43173;50.980;18.204;2023-06-01T14:22:03;4.90;;;1.30;;
57337;SDS011;43173;50.980;18.204;2023-06-01T14:24:29;2.50;;;1.30;;
57337;SDS011;43173;50.980;18.204;2023-06-01T14:26:56;4.10;;;1.30;;
57337;SDS011;43173;50.980;18.204;2023-06-01T14:29:22;1.50;;;1.30;;
57337;SDS011;43173;50.980;18.204;2023-06-01T14:31:47;3.60;;;1.20;;
57337;SDS011;43173;50.980;18.204;2023-06-01T14:34:13;2.20;;;1.40;;
57337;SDS011;43173;50.980;18.204;2023-06-01T14:36:40;2.80;;;1.50;;
57337;SDS011;43173;50.980;18.204;2023-06-01T14:39:06;3.70;;;1.60;;
57337;SDS011;43173;50.980;18.204;2023-06-01T14:41:31;5.40;;;1.70;;
57337;SDS011;43173;50.980;18.204;2023-06-01T14:43:57;3.80;;;1.50;;
57337;SDS011;43173;50.980;18.204;2023-06-01T14:46:23;2.20;;;1.40;;
57337;SDS011;43173;50.980;18.204;2023-06-01T14:48:48;10.20;;;1.50;;
57337;SDS011;43173;50.980;18.204;2023-06-01T14:51:14;2.60;;;1.60;;
57337;SDS011;43173;50.980;18.204;2023-06-01T14:53:40;3.50;;;1.40;;
57337;SDS011;43173;50.980;18.204;2023-06-01T14:56:06;2.50;;;1.30;;
57337;SDS011;43173;50.980;18.204;2023-06-01T14:58:32;5.00;;;1.70;;
57337;SDS011;43173;50.980;18.204;2023-06-01T15:00:57;3.40;;;1.40;;
57337;SDS011;43173;50.980;18.204;2023-06-01T15:03:24;4.60;;;1.60;;
57337;SDS011;43173;50.980;18.204;2023-06-01T15:05:50;4.30;;;1.50;;
57337;SDS011;43173;50.980;18.204;2023-06-01T15:08:17;3.60;;;1.70;;
57337;SDS011;43173;50.980;18.204;2023-06-01T15:10:46;5.50;;;1.70;;
57337;SDS011;43173;50.980;18.204;2023-06-01T15:13:12;7.30;;;1.70;;
57337;SDS011;43173;50.980;18.204;2023-06-01T15:15:39;2.70;;;1.50;;
57337;SDS011;43173;50.980;18.204;2023-06-01T15:18:05;2.20;;;1.90;;
57337;SDS011;43173;50.980;18.204;2023-06-01T15:20:31;2.90;;;1.70;;
57337;SDS011;43173;50.980;18.204;2023-06-01T15:22:57;4.20;;;1.70;;
57337;SDS011;43173;50.980;18.204;2023-06-01T15:25:22;3.40;;;2.00;;
57337;SDS011;43173;50.980;18.204;2023-06-01T15:27:48;3.50;;;2.00;;
57337;SDS011;43173;50.980;18.204;2023-06-01T15:30:15;3.00;;;1.90;;
57337;SDS011;43173;50.980;18.204;2023-06-01T15:32:40;3.60;;;1.90;;
57337;SDS011;43173;50.980;18.204;2023-06-01T15:35:06;5.90;;;2.20;;
57337;SDS011;43173;50.980;18.204;2023-06-01T15:37:33;3.70;;;2.10;;
57337;SDS011;43173;50.980;18.204;2023-06-01T15:40:00;3.10;;;1.80;;